createdAt,value
2023-01-22T00:01:26.618Z,101666.38
2023-01-22T00:06:28.692Z,101705.97
2023-01-22T00:11:30.987Z,101697.97
2023-01-22T00:16:33.086Z,101682.13
2023-01-22T00:21:35.283Z,101700.63
2023-01-22T00:26:37.836Z,101683.97
2023-01-22T00:31:40.245Z,101683.03
2023-01-22T00:36:42.772Z,101684.06
2023-01-22T00:41:44.816Z,101684.28
2023-01-22T00:46:47.168Z,101680.00
2023-01-22T00:51:49.274Z,101676.28
2023-01-22T00:56:51.275Z,101681.56
2023-01-22T01:01:53.442Z,101674.72
2023-01-22T01:06:55.697Z,101664.13
2023-01-22T01:11:57.737Z,101653.59
2023-01-22T01:16:59.828Z,101669.41
2023-01-22T01:22:01.907Z,101671.97
2023-01-22T01:27:05.298Z,101702.63
2023-01-22T01:32:07.383Z,101677.16
2023-01-22T01:37:09.459Z,101691.09
2023-01-22T01:42:11.508Z,101723.47
2023-01-22T01:47:32.523Z,101690.09
2023-01-22T01:52:34.836Z,101694.44
2023-01-22T01:57:37.704Z,101706.75
2023-01-22T02:02:40.801Z,101718.06
2023-01-22T02:07:43.971Z,101724.25
2023-01-22T02:12:46.194Z,101731.19
2023-01-22T02:17:48.709Z,101703.06
2023-01-22T02:22:51.120Z,101702.97
2023-01-22T02:27:53.759Z,101728.41
2023-01-22T02:32:57.772Z,101732.81
2023-01-22T02:38:00.314Z,101709.16
2023-01-22T02:43:03.015Z,101734.69
2023-01-22T02:48:05.374Z,101724.25
2023-01-22T02:53:09.861Z,101717.22
2023-01-22T02:58:12.605Z,101726.91
2023-01-22T03:03:17.414Z,101713.09
2023-01-22T03:08:20.493Z,101707.91
2023-01-22T03:13:40.763Z,101700.16
2023-01-22T03:19:01.286Z,101715.81
2023-01-22T03:24:03.532Z,101738.75
2023-01-22T03:29:06.224Z,101722.09
2023-01-22T03:34:09.139Z,101739.72
2023-01-22T03:39:11.998Z,101728.59
2023-01-22T03:44:14.539Z,101750.41
2023-01-22T03:49:18.251Z,101756.66
2023-01-22T03:54:20.496Z,101759.28
2023-01-22T03:59:23.728Z,101751.44
2023-01-22T04:04:26.093Z,101771.53
2023-01-22T04:09:28.467Z,101761.97
2023-01-22T04:14:32.181Z,101775.22
2023-01-22T04:19:37.271Z,101789.22
2023-01-22T04:24:54.308Z,101773.50
2023-01-22T04:29:56.489Z,101784.03
2023-01-22T04:34:59.749Z,101782.31
2023-01-22T04:40:22.248Z,101810.38
2023-01-22T04:45:25.083Z,101795.50
2023-01-22T04:50:30.724Z,101800.94
2023-01-22T04:55:33.070Z,101816.81
2023-01-22T05:00:39.051Z,101844.72
2023-01-22T05:05:41.453Z,101828.91
2023-01-22T05:10:43.583Z,101823.78
2023-01-22T05:15:52.239Z,101822.84
2023-01-22T05:20:54.883Z,101827.41
2023-01-22T05:25:59.340Z,101827.44
2023-01-22T05:31:25.724Z,101835.44
2023-01-22T05:36:36.250Z,101838.97
2023-01-22T05:41:44.244Z,101831.84
2023-01-22T05:46:47.381Z,101850.28
2023-01-22T05:52:00.204Z,101858.19
2023-01-22T05:57:03.371Z,101873.25
2023-01-22T06:02:05.560Z,101877.63
2023-01-22T06:07:10.652Z,101889.06
2023-01-22T06:12:13.225Z,101870.69
2023-01-22T06:17:15.439Z,101873.31
2023-01-22T06:22:28.169Z,101872.41
2023-01-22T06:27:34.468Z,101892.56
2023-01-22T06:32:38.636Z,101897.00
2023-01-22T06:37:40.975Z,101894.38
2023-01-22T06:42:43.463Z,101912.81
2023-01-22T06:47:46.831Z,101913.72
2023-01-22T06:52:50.028Z,101927.06
2023-01-22T06:57:55.619Z,101929.91
2023-01-22T07:02:57.988Z,101932.56
2023-01-22T07:08:00.245Z,101941.34
2023-01-22T07:13:04.606Z,101944.03
2023-01-22T07:18:06.714Z,101951.13
2023-01-22T07:23:09.878Z,101943.28
2023-01-22T07:28:15.274Z,101954.78
2023-01-22T07:33:19.298Z,101958.19
2023-01-22T07:38:21.211Z,101960.84
2023-01-22T07:43:23.341Z,101967.78
2023-01-22T07:48:25.593Z,101987.03
2023-01-22T07:53:28.473Z,102000.19
2023-01-22T07:58:30.614Z,102024.03
2023-01-22T08:03:34.216Z,102012.69
2023-01-22T08:08:36.324Z,102029.50
2023-01-22T08:13:38.451Z,102025.16
2023-01-22T08:18:40.633Z,102026.94
2023-01-22T08:23:46.178Z,102021.81
2023-01-22T08:28:49.729Z,102015.59
2023-01-22T08:33:51.856Z,102033.09
2023-01-22T08:38:54.167Z,102047.25
2023-01-22T08:43:56.237Z,102028.75
2023-01-22T08:48:58.528Z,102058.63
2023-01-22T08:54:00.716Z,102095.47
2023-01-22T08:59:06.723Z,102069.22
2023-01-22T09:04:10.622Z,102059.59
2023-01-22T09:09:13.129Z,102103.38
2023-01-22T09:14:15.451Z,102083.28
2023-01-22T09:19:17.630Z,102099.94
2023-01-22T09:24:19.843Z,102093.75
2023-01-22T09:29:22.065Z,102079.75
2023-01-22T09:34:24.192Z,102086.81
2023-01-22T09:39:26.251Z,102104.34
2023-01-22T09:44:39.333Z,102102.56
2023-01-22T09:50:13.595Z,102111.31
2023-01-22T09:55:19.519Z,102135.88
2023-01-22T10:00:30.424Z,102135.00
2023-01-22T10:05:47.107Z,102128.06
2023-01-22T10:10:51.085Z,102143.81
2023-01-22T10:15:55.666Z,102119.25
2023-01-22T10:21:01.183Z,102129.75
2023-01-22T10:26:25.449Z,102115.72
2023-01-22T10:31:28.981Z,102132.25
2023-01-22T10:36:32.132Z,102142.72
2023-01-22T10:41:34.341Z,102135.81
2023-01-22T10:46:36.503Z,102118.41
2023-01-22T10:51:41.646Z,102139.44
2023-01-22T10:56:44.708Z,102134.09
2023-01-22T11:01:52.905Z,102134.00
2023-01-22T11:07:14.536Z,102127.94
2023-01-22T11:12:19.762Z,102152.41
2023-01-22T11:17:31.382Z,102153.31
2023-01-22T11:22:40.758Z,102148.97
2023-01-22T11:28:08.192Z,102134.13
2023-01-22T11:33:31.375Z,102120.94
2023-01-22T11:38:42.277Z,102095.34
2023-01-22T11:43:59.982Z,102120.03
2023-01-22T11:49:23.609Z,102129.63
2023-01-22T11:54:43.905Z,102130.47
2023-01-22T12:00:10.944Z,102116.53
2023-01-22T12:05:22.431Z,102127.09
2023-01-22T12:11:08.639Z,102126.06
2023-01-22T12:16:59.848Z,102111.19
2023-01-22T12:22:28.054Z,102105.94
2023-01-22T12:27:39.217Z,102100.75
2023-01-22T12:32:45.857Z,102113.91
2023-01-22T12:37:55.522Z,102126.19
2023-01-22T12:43:06.708Z,102107.69
2023-01-22T12:48:18.925Z,102098.13
2023-01-22T12:53:34.449Z,102092.84
2023-01-22T12:58:39.316Z,102063.03
2023-01-22T13:03:42.303Z,102077.16
2023-01-22T13:08:46.063Z,102071.84
2023-01-22T13:13:56.748Z,102061.38
2023-01-22T13:19:20.672Z,102067.53
2023-01-22T13:24:22.761Z,102107.88
2023-01-22T13:29:33.028Z,102066.75
2023-01-22T13:34:35.354Z,102063.25
2023-01-22T13:39:37.442Z,102050.97
2023-01-22T13:44:42.692Z,102043.06
2023-01-22T13:49:44.972Z,102035.09
2023-01-22T13:55:01.488Z,102075.50
2023-01-22T14:00:04.751Z,102039.63
2023-01-22T14:05:21.924Z,102051.91
2023-01-22T14:10:25.640Z,102053.59
2023-01-22T14:15:27.895Z,102053.59
2023-01-22T14:20:30.079Z,102082.53
2023-01-22T14:25:32.252Z,102070.28
2023-01-22T14:30:34.577Z,102070.28
2023-01-22T14:35:36.634Z,102072.06
2023-01-22T14:40:38.734Z,102059.72
2023-01-22T14:45:42.077Z,102082.41
2023-01-22T14:50:44.479Z,102069.25
2023-01-22T14:55:46.793Z,102061.50
2023-01-22T15:00:48.866Z,102067.66
2023-01-22T15:05:52.425Z,102062.41
2023-01-22T15:10:54.643Z,102074.66
2023-01-22T15:15:56.828Z,102097.47
2023-01-22T15:20:58.999Z,102101.00
2023-01-22T15:26:25.040Z,102096.66
2023-01-22T15:31:27.621Z,102103.59
2023-01-22T15:36:30.682Z,102101.00
2023-01-22T15:41:34.984Z,102112.50
2023-01-22T15:46:39.591Z,102109.00
2023-01-22T15:51:42.288Z,102128.22
2023-01-22T15:56:44.667Z,102108.09
2023-01-22T16:01:47.014Z,102123.00
2023-01-22T16:06:49.366Z,102113.41
2023-01-22T16:11:52.672Z,102116.97
2023-01-22T16:16:54.873Z,102111.72
2023-01-22T16:21:56.951Z,102130.03
2023-01-22T16:26:59.569Z,102131.03
2023-01-22T16:32:01.781Z,102119.59
2023-01-22T16:37:03.887Z,102140.69
2023-01-22T16:42:06.051Z,102139.78
2023-01-22T16:47:08.311Z,102137.94
2023-01-22T16:52:22.015Z,102114.38
2023-01-22T16:57:24.782Z,102121.47
2023-01-22T17:02:26.889Z,102085.81
2023-01-22T17:07:33.913Z,102139.00
2023-01-22T17:12:36.589Z,102107.50
2023-01-22T17:17:38.789Z,102129.41
2023-01-22T17:22:40.959Z,102108.41
2023-01-22T17:27:43.093Z,102119.81
2023-01-22T17:32:47.570Z,102108.34
2023-01-22T17:37:49.695Z,102103.91
2023-01-22T17:42:52.261Z,102104.75
2023-01-22T17:47:54.474Z,102118.78
2023-01-22T17:52:57.264Z,102103.00
2023-01-22T17:58:00.156Z,102109.13
2023-01-22T18:03:02.288Z,102124.00
2023-01-22T18:08:04.524Z,102111.75
2023-01-22T18:13:06.689Z,102109.06
2023-01-22T18:18:09.128Z,102120.50
2023-01-22T18:23:15.391Z,102117.06
2023-01-22T18:28:18.561Z,102138.06
2023-01-22T18:33:21.478Z,102132.63
2023-01-22T18:38:28.652Z,102124.69
2023-01-22T18:43:30.754Z,102129.13
2023-01-22T18:48:32.931Z,102132.63
2023-01-22T18:53:35.798Z,102128.34
2023-01-22T18:58:38.832Z,102137.91
2023-01-22T19:03:43.015Z,102133.53
2023-01-22T19:08:48.482Z,102143.16
2023-01-22T19:13:54.429Z,102140.56
2023-01-22T19:18:58.925Z,102137.16
2023-01-22T19:24:02.219Z,102145.03
2023-01-22T19:29:15.675Z,102149.44
2023-01-22T19:34:23.779Z,102149.41
2023-01-22T19:39:26.303Z,102147.69
2023-01-22T19:44:29.743Z,102167.88
2023-01-22T19:49:32.080Z,102141.56
2023-01-22T19:54:34.240Z,102158.25
2023-01-22T19:59:36.259Z,102161.81
2023-01-22T20:04:38.802Z,102152.97
2023-01-22T20:09:40.944Z,102157.28
2023-01-22T20:14:44.059Z,102166.09
2023-01-22T20:19:46.157Z,102147.72
2023-01-22T20:24:48.370Z,102166.34
2023-01-22T20:29:50.650Z,102166.97
2023-01-22T20:34:52.746Z,102164.31
2023-01-22T20:39:54.980Z,102156.44
2023-01-22T20:44:58.613Z,102157.28
2023-01-22T20:50:00.876Z,102148.53
2023-01-22T20:55:03.571Z,102123.91
2023-01-22T21:00:06.487Z,102163.38
2023-01-22T21:05:09.026Z,102152.03
2023-01-22T21:10:11.619Z,102147.59
2023-01-22T21:15:13.777Z,102137.94
2023-01-22T21:20:15.926Z,102157.38
2023-01-22T21:25:18.081Z,102132.84
2023-01-22T21:30:20.500Z,102146.69
2023-01-22T21:35:22.996Z,102137.06
2023-01-22T21:40:25.165Z,102137.06
2023-01-22T21:45:45.860Z,102131.94
2023-01-22T21:50:48.002Z,102141.59
2023-01-22T21:55:53.753Z,102146.00
2023-01-22T22:00:55.867Z,102152.97
2023-01-22T22:06:02.086Z,102132.88
2023-01-22T22:11:05.002Z,102143.50
2023-01-22T22:16:08.920Z,102143.41
2023-01-22T22:21:13.255Z,102149.63
2023-01-22T22:26:15.488Z,102141.66
2023-01-22T22:31:18.484Z,102141.66
2023-01-22T22:36:23.398Z,102139.00
2023-01-22T22:41:28.266Z,102124.13
2023-01-22T22:46:36.079Z,102133.91
2023-01-22T22:51:40.599Z,102135.69
2023-01-22T22:56:47.175Z,102121.56
2023-01-22T23:01:49.932Z,102110.94
2023-01-22T23:06:52.251Z,102120.56
2023-01-22T23:11:58.589Z,102110.88
2023-01-22T23:17:00.708Z,102090.75
2023-01-22T23:22:02.918Z,102105.59
2023-01-22T23:27:05.209Z,102088.97
2023-01-22T23:32:07.356Z,102091.59
2023-01-22T23:37:09.446Z,102094.25
2023-01-22T23:42:11.545Z,102083.72
2023-01-22T23:47:13.689Z,102070.81
2023-01-22T23:52:15.887Z,102077.59
2023-01-22T23:57:18.108Z,102081.09
